sensor_id;sensor_type;location;lat;lon;timestamp;P1;durP1;ratioP1;P2;durP2;ratioP2
36797;SDS011;22748;8.426;99.512;2023-03-01T00:02:17;42.70;;;34.10;;
36797;SDS011;22748;8.426;99.512;2023-03-01T00:07:21;56.70;;;39.75;;
36797;SDS011;22748;8.426;99.512;2023-03-01T00:09:56;52.80;;;37.65;;
36797;SDS011;22748;8.426;99.512;2023-03-01T00:12:27;52.92;;;39.40;;
36797;SDS011;22748;8.426;99.512;2023-03-01T00:15:00;74.50;;;49.22;;
36797;SDS011;22748;8.426;99.512;2023-03-01T00:17:31;63.35;;;43.25;;
36797;SDS011;22748;8.426;99.512;2023-03-01T00:20:05;52.80;;;39.15;;
36797;SDS011;22748;8.426;99.512;2023-03-01T00:22:36;45.15;;;38.25;;
36797;SDS011;22748;8.426;99.512;2023-03-01T00:25:07;58.90;;;43.95;;
36797;SDS011;22748;8.426;99.512;2023-03-01T00:27:39;65.53;;;46.28;;
36797;SDS011;22748;8.426;99.512;2023-03-01T00:30:12;64.43;;;47.17;;
36797;SDS011;22748;8.426;99.512;2023-03-01T00:32:44;59.15;;;42.42;;
36797;SDS011;22748;8.426;99.512;2023-03-01T00:35:15;57.30;;;46.28;;
36797;SDS011;22748;8.426;99.512;2023-03-01T00:37:45;56.03;;;40.65;;
36797;SDS011;22748;8.426;99.512;2023-03-01T00:40:23;51.78;;;41.58;;
36797;SDS011;22748;8.426;99.512;2023-03-01T00:42:53;106.70;;;74.68;;
36797;SDS011;22748;8.426;99.512;2023-03-01T00:45:26;100.10;;;69.65;;
36797;SDS011;22748;8.426;99.512;2023-03-01T00:47:58;95.03;;;70.97;;
36797;SDS011;22748;8.426;99.512;2023-03-01T00:50:29;135.25;;;94.90;;
36797;SDS011;22748;8.426;99.512;2023-03-01T00:52:59;111.38;;;78.40;;
36797;SDS011;22748;8.426;99.512;2023-03-01T00:55:29;77.25;;;55.13;;
36797;SDS011;22748;8.426;99.512;2023-03-01T00:58:02;63.58;;;46.67;;
36797;SDS011;22748;8.426;99.512;2023-03-01T01:00:34;62.97;;;45.13;;
36797;SDS011;22748;8.426;99.512;2023-03-01T01:03:05;53.10;;;41.50;;
36797;SDS011;22748;8.426;99.512;2023-03-01T01:05:36;46.63;;;37.38;;
36797;SDS011;22748;8.426;99.512;2023-03-01T01:08:06;49.47;;;38.65;;
36797;SDS011;22748;8.426;99.512;2023-03-01T01:10:36;46.85;;;37.17;;
36797;SDS011;22748;8.426;99.512;2023-03-01T01:13:07;40.72;;;35.25;;
36797;SDS011;22748;8.426;99.512;2023-03-01T01:15:40;44.20;;;35.45;;
36797;SDS011;22748;8.426;99.512;2023-03-01T01:18:11;40.75;;;34.80;;
36797;SDS011;22748;8.426;99.512;2023-03-01T01:23:12;71.47;;;46.08;;
36797;SDS011;22748;8.426;99.512;2023-03-01T01:25:49;72.68;;;49.83;;
36797;SDS011;22748;8.426;99.512;2023-03-01T01:28:19;61.90;;;41.83;;
36797;SDS011;22748;8.426;99.512;2023-03-01T01:30:53;65.05;;;45.42;;
36797;SDS011;22748;8.426;99.512;2023-03-01T01:33:35;57.55;;;41.85;;
36797;SDS011;22748;8.426;99.512;2023-03-01T01:36:06;51.78;;;39.45;;
36797;SDS011;22748;8.426;99.512;2023-03-01T01:38:43;47.30;;;36.20;;
36797;SDS011;22748;8.426;99.512;2023-03-01T01:41:14;43.03;;;34.72;;
36797;SDS011;22748;8.426;99.512;2023-03-01T01:47:00;46.70;;;34.72;;
36797;SDS011;22748;8.426;99.512;2023-03-01T01:49:34;42.45;;;34.42;;
36797;SDS011;22748;8.426;99.512;2023-03-01T01:52:08;44.75;;;34.30;;
36797;SDS011;22748;8.426;99.512;2023-03-01T01:54:49;42.13;;;33.70;;
36797;SDS011;22748;8.426;99.512;2023-03-01T01:57:24;41.67;;;33.92;;
36797;SDS011;22748;8.426;99.512;2023-03-01T02:00:04;42.22;;;34.90;;
36797;SDS011;22748;8.426;99.512;2023-03-01T02:02:39;41.10;;;35.13;;
36797;SDS011;22748;8.426;99.512;2023-03-01T02:05:12;42.92;;;34.20;;
36797;SDS011;22748;8.426;99.512;2023-03-01T02:07:46;40.38;;;32.95;;
36797;SDS011;22748;8.426;99.512;2023-03-01T02:10:17;43.33;;;34.17;;
36797;SDS011;22748;8.426;99.512;2023-03-01T02:12:54;39.65;;;33.50;;
36797;SDS011;22748;8.426;99.512;2023-03-01T02:15:25;35.13;;;31.40;;
36797;SDS011;22748;8.426;99.512;2023-03-01T02:18:08;42.25;;;32.55;;
36797;SDS011;22748;8.426;99.512;2023-03-01T02:20:43;42.58;;;32.75;;
36797;SDS011;22748;8.426;99.512;2023-03-01T02:23:19;44.78;;;33.75;;
36797;SDS011;22748;8.426;99.512;2023-03-01T02:26:02;37.38;;;30.95;;
36797;SDS011;22748;8.426;99.512;2023-03-01T02:28:40;46.50;;;30.40;;
36797;SDS011;22748;8.426;99.512;2023-03-01T02:31:14;39.85;;;28.40;;
36797;SDS011;22748;8.426;99.512;2023-03-01T02:36:44;32.42;;;27.13;;
36797;SDS011;22748;8.426;99.512;2023-03-01T02:39:22;36.92;;;26.10;;
36797;SDS011;22748;8.426;99.512;2023-03-01T02:41:55;33.33;;;26.73;;
36797;SDS011;22748;8.426;99.512;2023-03-01T02:44:34;32.25;;;28.77;;
36797;SDS011;22748;8.426;99.512;2023-03-01T02:47:11;34.15;;;29.25;;
36797;SDS011;22748;8.426;99.512;2023-03-01T02:49:46;34.08;;;29.23;;
36797;SDS011;22748;8.426;99.512;2023-03-01T02:52:21;40.22;;;30.42;;
36797;SDS011;22748;8.426;99.512;2023-03-01T02:55:01;35.22;;;28.77;;
36797;SDS011;22748;8.426;99.512;2023-03-01T02:57:34;35.28;;;28.80;;
36797;SDS011;22748;8.426;99.512;2023-03-01T03:00:15;34.83;;;29.15;;
36797;SDS011;22748;8.426;99.512;2023-03-01T03:02:53;34.78;;;28.98;;
36797;SDS011;22748;8.426;99.512;2023-03-01T03:08:02;31.50;;;26.35;;
36797;SDS011;22748;8.426;99.512;2023-03-01T03:10:42;32.17;;;27.42;;
36797;SDS011;22748;8.426;99.512;2023-03-01T03:13:14;29.05;;;25.85;;
36797;SDS011;22748;8.426;99.512;2023-03-01T03:15:47;35.47;;;26.90;;
36797;SDS011;22748;8.426;99.512;2023-03-01T03:18:25;29.05;;;24.55;;
36797;SDS011;22748;8.426;99.512;2023-03-01T03:21:01;29.23;;;25.30;;
36797;SDS011;22748;8.426;99.512;2023-03-01T03:23:37;27.60;;;24.50;;
36797;SDS011;22748;8.426;99.512;2023-03-01T03:26:08;26.95;;;23.88;;
36797;SDS011;22748;8.426;99.512;2023-03-01T03:28:45;28.83;;;24.27;;
36797;SDS011;22748;8.426;99.512;2023-03-01T03:31:23;29.90;;;24.58;;
36797;SDS011;22748;8.426;99.512;2023-03-01T03:34:01;29.67;;;24.67;;
36797;SDS011;22748;8.426;99.512;2023-03-01T03:36:31;28.63;;;24.73;;
36797;SDS011;22748;8.426;99.512;2023-03-01T03:39:02;29.20;;;23.70;;
36797;SDS011;22748;8.426;99.512;2023-03-01T03:41:35;26.92;;;24.10;;
36797;SDS011;22748;8.426;99.512;2023-03-01T03:44:06;34.47;;;26.40;;
36797;SDS011;22748;8.426;99.512;2023-03-01T03:46:37;30.65;;;25.58;;
36797;SDS011;22748;8.426;99.512;2023-03-01T03:49:08;27.35;;;23.23;;
36797;SDS011;22748;8.426;99.512;2023-03-01T03:51:39;34.45;;;24.10;;
36797;SDS011;22748;8.426;99.512;2023-03-01T03:54:09;28.83;;;24.40;;
36797;SDS011;22748;8.426;99.512;2023-03-01T03:56:46;29.92;;;23.45;;
36797;SDS011;22748;8.426;99.512;2023-03-01T03:59:17;25.80;;;23.10;;
36797;SDS011;22748;8.426;99.512;2023-03-01T04:01:55;30.92;;;23.13;;
36797;SDS011;22748;8.426;99.512;2023-03-01T04:04:26;26.58;;;22.75;;
36797;SDS011;22748;8.426;99.512;2023-03-01T04:06:55;28.83;;;23.35;;
36797;SDS011;22748;8.426;99.512;2023-03-01T04:09:25;27.38;;;24.13;;
36797;SDS011;22748;8.426;99.512;2023-03-01T04:11:57;25.92;;;23.13;;
36797;SDS011;22748;8.426;99.512;2023-03-01T04:14:28;27.17;;;23.27;;
36797;SDS011;22748;8.426;99.512;2023-03-01T04:17:06;25.98;;;22.13;;
36797;SDS011;22748;8.426;99.512;2023-03-01T04:19:36;24.60;;;22.13;;
36797;SDS011;22748;8.426;99.512;2023-03-01T04:22:21;24.45;;;21.85;;
36797;SDS011;22748;8.426;99.512;2023-03-01T04:24:57;25.55;;;22.60;;
36797;SDS011;22748;8.426;99.512;2023-03-01T04:27:32;26.17;;;22.05;;
36797;SDS011;22748;8.426;99.512;2023-03-01T04:30:03;25.30;;;22.70;;
36797;SDS011;22748;8.426;99.512;2023-03-01T04:32:47;26.52;;;23.80;;
36797;SDS011;22748;8.426;99.512;2023-03-01T04:35:23;28.90;;;24.00;;
36797;SDS011;22748;8.426;99.512;2023-03-01T04:37:55;28.67;;;24.83;;
36797;SDS011;22748;8.426;99.512;2023-03-01T04:40:30;29.23;;;23.45;;
36797;SDS011;22748;8.426;99.512;2023-03-01T04:43:09;27.50;;;23.88;;
36797;SDS011;22748;8.426;99.512;2023-03-01T04:45:46;27.17;;;23.45;;
36797;SDS011;22748;8.426;99.512;2023-03-01T04:48:19;27.60;;;24.67;;
36797;SDS011;22748;8.426;99.512;2023-03-01T04:50:54;28.90;;;23.48;;
36797;SDS011;22748;8.426;99.512;2023-03-01T04:56:03;24.00;;;21.58;;
36797;SDS011;22748;8.426;99.512;2023-03-01T04:58:45;22.80;;;20.40;;
36797;SDS011;22748;8.426;99.512;2023-03-01T05:01:17;24.02;;;21.52;;
36797;SDS011;22748;8.426;99.512;2023-03-01T05:03:54;23.95;;;21.60;;
36797;SDS011;22748;8.426;99.512;2023-03-01T05:06:29;25.35;;;22.65;;
36797;SDS011;22748;8.426;99.512;2023-03-01T05:08:59;25.58;;;22.58;;
36797;SDS011;22748;8.426;99.512;2023-03-01T05:11:29;23.77;;;21.33;;
36797;SDS011;22748;8.426;99.512;2023-03-01T05:14:03;23.83;;;21.35;;
36797;SDS011;22748;8.426;99.512;2023-03-01T05:16:34;27.50;;;22.75;;
36797;SDS011;22748;8.426;99.512;2023-03-01T05:19:13;23.40;;;20.90;;
36797;SDS011;22748;8.426;99.512;2023-03-01T05:21:49;23.45;;;20.95;;
36797;SDS011;22748;8.426;99.512;2023-03-01T05:24:44;23.33;;;20.85;;
36797;SDS011;22748;8.426;99.512;2023-03-01T05:27:15;25.55;;;21.92;;
36797;SDS011;22748;8.426;99.512;2023-03-01T05:29:50;25.08;;;21.63;;
36797;SDS011;22748;8.426;99.512;2023-03-01T05:32:40;24.65;;;22.13;;
36797;SDS011;22748;8.426;99.512;2023-03-01T05:35:37;27.02;;;20.55;;
36797;SDS011;22748;8.426;99.512;2023-03-01T05:38:09;24.85;;;22.10;;
36797;SDS011;22748;8.426;99.512;2023-03-01T05:40:47;23.73;;;21.05;;
36797;SDS011;22748;8.426;99.512;2023-03-01T05:43:23;23.40;;;21.10;;
36797;SDS011;22748;8.426;99.512;2023-03-01T05:45:58;25.30;;;22.58;;
36797;SDS011;22748;8.426;99.512;2023-03-01T05:48:31;32.22;;;21.23;;
36797;SDS011;22748;8.426;99.512;2023-03-01T05:51:10;24.92;;;22.23;;
36797;SDS011;22748;8.426;99.512;2023-03-01T05:53:50;24.60;;;21.25;;
36797;SDS011;22748;8.426;99.512;2023-03-01T05:56:22;23.13;;;20.85;;
36797;SDS011;22748;8.426;99.512;2023-03-01T05:58:52;25.08;;;22.20;;
36797;SDS011;22748;8.426;99.512;2023-03-01T06:01:24;24.40;;;21.65;;
36797;SDS011;22748;8.426;99.512;2023-03-01T06:03:55;23.55;;;20.98;;
36797;SDS011;22748;8.426;99.512;2023-03-01T06:06:28;24.45;;;21.90;;
36797;SDS011;22748;8.426;99.512;2023-03-01T06:08:59;26.50;;;21.63;;
36797;SDS011;22748;8.426;99.512;2023-03-01T06:14:00;23.75;;;21.35;;
36797;SDS011;22748;8.426;99.512;2023-03-01T06:16:32;25.15;;;21.15;;
36797;SDS011;22748;8.426;99.512;2023-03-01T06:19:02;26.80;;;22.25;;
36797;SDS011;22748;8.426;99.512;2023-03-01T06:21:34;28.05;;;22.88;;
36797;SDS011;22748;8.426;99.512;2023-03-01T06:24:04;27.58;;;23.02;;
36797;SDS011;22748;8.426;99.512;2023-03-01T06:26:34;25.13;;;21.77;;
36797;SDS011;22748;8.426;99.512;2023-03-01T06:29:05;26.15;;;23.38;;
36797;SDS011;22748;8.426;99.512;2023-03-01T06:31:35;25.15;;;22.55;;
36797;SDS011;22748;8.426;99.512;2023-03-01T06:34:05;25.30;;;21.80;;
36797;SDS011;22748;8.426;99.512;2023-03-01T06:36:43;27.05;;;23.15;;
36797;SDS011;22748;8.426;99.512;2023-03-01T06:39:13;25.55;;;22.85;;
36797;SDS011;22748;8.426;99.512;2023-03-01T06:41:46;25.10;;;22.55;;
36797;SDS011;22748;8.426;99.512;2023-03-01T06:44:17;25.63;;;23.13;;
36797;SDS011;22748;8.426;99.512;2023-03-01T06:46:48;24.75;;;22.15;;
36797;SDS011;22748;8.426;99.512;2023-03-01T06:49:19;24.67;;;21.58;;
36797;SDS011;22748;8.426;99.512;2023-03-01T06:51:52;23.38;;;20.88;;
36797;SDS011;22748;8.426;99.512;2023-03-01T06:54:23;24.20;;;21.65;;
36797;SDS011;22748;8.426;99.512;2023-03-01T06:56:54;24.23;;;21.55;;
36797;SDS011;22748;8.426;99.512;2023-03-01T06:59:24;24.98;;;22.40;;
36797;SDS011;22748;8.426;99.512;2023-03-01T07:01:59;23.73;;;21.33;;
36797;SDS011;22748;8.426;99.512;2023-03-01T07:04:30;23.60;;;21.10;;
36797;SDS011;22748;8.426;99.512;2023-03-01T07:09:31;24.15;;;21.65;;
36797;SDS011;22748;8.426;99.512;2023-03-01T07:12:02;27.57;;;22.77;;
36797;SDS011;22748;8.426;99.512;2023-03-01T07:14:32;24.88;;;22.20;;
36797;SDS011;22748;8.426;99.512;2023-03-01T07:17:03;26.75;;;24.02;;
36797;SDS011;22748;8.426;99.512;2023-03-01T07:22:05;26.73;;;23.58;;
36797;SDS011;22748;8.426;99.512;2023-03-01T07:24:36;24.17;;;21.35;;
36797;SDS011;22748;8.426;99.512;2023-03-01T07:27:06;24.73;;;21.90;;
36797;SDS011;22748;8.426;99.512;2023-03-01T07:29:36;23.90;;;21.50;;
36797;SDS011;22748;8.426;99.512;2023-03-01T07:32:07;24.33;;;21.00;;
36797;SDS011;22748;8.426;99.512;2023-03-01T07:34:38;25.40;;;21.50;;
36797;SDS011;22748;8.426;99.512;2023-03-01T07:37:15;23.83;;;21.45;;
36797;SDS011;22748;8.426;99.512;2023-03-01T07:39:46;25.83;;;21.10;;
36797;SDS011;22748;8.426;99.512;2023-03-01T07:42:17;23.33;;;20.83;;
36797;SDS011;22748;8.426;99.512;2023-03-01T07:44:47;25.17;;;22.48;;
36797;SDS011;22748;8.426;99.512;2023-03-01T07:47:18;23.55;;;21.15;;
36797;SDS011;22748;8.426;99.512;2023-03-01T07:49:48;24.50;;;21.90;;
36797;SDS011;22748;8.426;99.512;2023-03-01T07:52:21;25.10;;;22.70;;
36797;SDS011;22748;8.426;99.512;2023-03-01T07:54:51;26.20;;;22.05;;
36797;SDS011;22748;8.426;99.512;2023-03-01T07:57:21;25.88;;;23.27;;
36797;SDS011;22748;8.426;99.512;2023-03-01T07:59:52;26.00;;;23.33;;
36797;SDS011;22748;8.426;99.512;2023-03-01T08:02:23;27.90;;;24.95;;
36797;SDS011;22748;8.426;99.512;2023-03-01T08:04:53;30.08;;;26.25;;
36797;SDS011;22748;8.426;99.512;2023-03-01T08:07:25;29.05;;;24.63;;
36797;SDS011;22748;8.426;99.512;2023-03-01T08:09:55;27.48;;;24.83;;
36797;SDS011;22748;8.426;99.512;2023-03-01T08:12:26;29.02;;;25.08;;
36797;SDS011;22748;8.426;99.512;2023-03-01T08:14:56;28.45;;;24.98;;
36797;SDS011;22748;8.426;99.512;2023-03-01T08:17:26;28.17;;;25.38;;
36797;SDS011;22748;8.426;99.512;2023-03-01T08:19:56;27.90;;;24.97;;
36797;SDS011;22748;8.426;99.512;2023-03-01T08:22:29;29.00;;;25.97;;
36797;SDS011;22748;8.426;99.512;2023-03-01T08:24:59;27.70;;;24.90;;
36797;SDS011;22748;8.426;99.512;2023-03-01T08:27:30;26.65;;;23.90;;
36797;SDS011;22748;8.426;99.512;2023-03-01T08:30:03;26.98;;;24.13;;
36797;SDS011;22748;8.426;99.512;2023-03-01T08:32:37;25.42;;;22.75;;
36797;SDS011;22748;8.426;99.512;2023-03-01T08:35:11;25.15;;;22.65;;
36797;SDS011;22748;8.426;99.512;2023-03-01T08:40:14;25.77;;;23.05;;
36797;SDS011;22748;8.426;99.512;2023-03-01T08:42:46;26.83;;;23.15;;
36797;SDS011;22748;8.426;99.512;2023-03-01T08:45:18;26.48;;;23.63;;
36797;SDS011;22748;8.426;99.512;2023-03-01T08:47:52;26.50;;;23.80;;
36797;SDS011;22748;8.426;99.512;2023-03-01T08:50:22;26.17;;;23.42;;
36797;SDS011;22748;8.426;99.512;2023-03-01T08:52:54;25.77;;;23.08;;
36797;SDS011;22748;8.426;99.512;2023-03-01T08:55:26;28.05;;;22.88;;
36797;SDS011;22748;8.426;99.512;2023-03-01T08:57:59;25.52;;;22.75;;
36797;SDS011;22748;8.426;99.512;2023-03-01T09:00:30;24.83;;;22.27;;
36797;SDS011;22748;8.426;99.512;2023-03-01T09:03:01;25.08;;;22.48;;
36797;SDS011;22748;8.426;99.512;2023-03-01T09:05:32;26.20;;;23.02;;
36797;SDS011;22748;8.426;99.512;2023-03-01T09:08:04;28.80;;;23.08;;
36797;SDS011;22748;8.426;99.512;2023-03-01T09:10:37;47.28;;;38.90;;
36797;SDS011;22748;8.426;99.512;2023-03-01T09:13:07;36.45;;;30.30;;
36797;SDS011;22748;8.426;99.512;2023-03-01T09:15:39;39.15;;;32.63;;
36797;SDS011;22748;8.426;99.512;2023-03-01T09:18:23;41.30;;;31.40;;
36797;SDS011;22748;8.426;99.512;2023-03-01T09:21:00;39.83;;;31.83;;
36797;SDS011;22748;8.426;99.512;2023-03-01T09:23:37;29.95;;;25.30;;
36797;SDS011;22748;8.426;99.512;2023-03-01T09:26:09;35.67;;;26.73;;
36797;SDS011;22748;8.426;99.512;2023-03-01T09:28:42;30.08;;;26.90;;
36797;SDS011;22748;8.426;99.512;2023-03-01T09:31:13;28.83;;;24.23;;
36797;SDS011;22748;8.426;99.512;2023-03-01T09:33:46;26.83;;;23.15;;
36797;SDS011;22748;8.426;99.512;2023-03-01T09:36:18;26.63;;;22.55;;
36797;SDS011;22748;8.426;99.512;2023-03-01T09:38:51;26.50;;;23.67;;
36797;SDS011;22748;8.426;99.512;2023-03-01T09:41:38;25.70;;;22.90;;
36797;SDS011;22748;8.426;99.512;2023-03-01T09:44:34;29.20;;;23.20;;
36797;SDS011;22748;8.426;99.512;2023-03-01T09:47:10;24.50;;;22.08;;
36797;SDS011;22748;8.426;99.512;2023-03-01T09:49:45;25.60;;;22.08;;
36797;SDS011;22748;8.426;99.512;2023-03-01T09:52:26;24.95;;;22.45;;
36797;SDS011;22748;8.426;99.512;2023-03-01T09:55:08;25.92;;;22.33;;
36797;SDS011;22748;8.426;99.512;2023-03-01T09:57:43;28.15;;;22.00;;
36797;SDS011;22748;8.426;99.512;2023-03-01T10:00:28;25.00;;;22.60;;
36797;SDS011;22748;8.426;99.512;2023-03-01T10:03:12;25.85;;;23.10;;
36797;SDS011;22748;8.426;99.512;2023-03-01T10:05:51;32.78;;;27.70;;
36797;SDS011;22748;8.426;99.512;2023-03-01T10:08:28;30.98;;;27.35;;
36797;SDS011;22748;8.426;99.512;2023-03-01T10:11:12;32.35;;;25.88;;
36797;SDS011;22748;8.426;99.512;2023-03-01T10:13:50;27.55;;;24.60;;
36797;SDS011;22748;8.426;99.512;2023-03-01T10:16:28;29.67;;;25.95;;
36797;SDS011;22748;8.426;99.512;2023-03-01T10:21:41;28.35;;;25.35;;
36797;SDS011;22748;8.426;99.512;2023-03-01T10:24:14;48.30;;;39.25;;
36797;SDS011;22748;8.426;99.512;2023-03-01T10:26:51;31.52;;;28.23;;
36797;SDS011;22748;8.426;99.512;2023-03-01T10:29:25;33.58;;;29.98;;
36797;SDS011;22748;8.426;99.512;2023-03-01T10:31:59;30.23;;;27.13;;
36797;SDS011;22748;8.426;99.512;2023-03-01T10:34:33;31.15;;;26.70;;
36797;SDS011;22748;8.426;99.512;2023-03-01T10:37:10;36.53;;;30.05;;
36797;SDS011;22748;8.426;99.512;2023-03-01T10:40:03;33.30;;;28.42;;
36797;SDS011;22748;8.426;99.512;2023-03-01T10:42:49;38.33;;;30.95;;
36797;SDS011;22748;8.426;99.512;2023-03-01T10:45:35;48.40;;;36.78;;
36797;SDS011;22748;8.426;99.512;2023-03-01T10:48:11;51.10;;;38.60;;
36797;SDS011;22748;8.426;99.512;2023-03-01T10:50:43;50.05;;;40.53;;
36797;SDS011;22748;8.426;99.512;2023-03-01T10:53:21;49.08;;;39.95;;
36797;SDS011;22748;8.426;99.512;2023-03-01T10:55:57;43.33;;;35.45;;
36797;SDS011;22748;8.426;99.512;2023-03-01T10:58:31;43.30;;;35.38;;
36797;SDS011;22748;8.426;99.512;2023-03-01T11:01:06;56.75;;;44.47;;
36797;SDS011;22748;8.426;99.512;2023-03-01T11:04:11;38.33;;;32.10;;
36797;SDS011;22748;8.426;99.512;2023-03-01T11:06:42;33.40;;;29.90;;
36797;SDS011;22748;8.426;99.512;2023-03-01T11:09:29;33.88;;;30.33;;
36797;SDS011;22748;8.426;99.512;2023-03-01T11:12:08;34.78;;;28.95;;
36797;SDS011;22748;8.426;99.512;2023-03-01T11:14:49;31.75;;;28.52;;
36797;SDS011;22748;8.426;99.512;2023-03-01T11:17:25;31.92;;;27.88;;
36797;SDS011;22748;8.426;99.512;2023-03-01T11:20:00;29.80;;;26.73;;
36797;SDS011;22748;8.426;99.512;2023-03-01T11:22:34;36.88;;;29.55;;
36797;SDS011;22748;8.426;99.512;2023-03-01T11:25:05;39.60;;;30.67;;
36797;SDS011;22748;8.426;99.512;2023-03-01T11:27:41;35.50;;;29.15;;
36797;SDS011;22748;8.426;99.512;2023-03-01T11:30:18;33.53;;;29.25;;
36797;SDS011;22748;8.426;99.512;2023-03-01T11:32:55;30.95;;;27.42;;
36797;SDS011;22748;8.426;99.512;2023-03-01T11:35:40;45.78;;;31.75;;
36797;SDS011;22748;8.426;99.512;2023-03-01T11:38:18;44.65;;;29.92;;
36797;SDS011;22748;8.426;99.512;2023-03-01T11:40:52;38.63;;;30.17;;
36797;SDS011;22748;8.426;99.512;2023-03-01T11:43:28;40.45;;;33.90;;
36797;SDS011;22748;8.426;99.512;2023-03-01T11:49:08;49.55;;;38.03;;
36797;SDS011;22748;8.426;99.512;2023-03-01T11:51:58;44.40;;;35.67;;
36797;SDS011;22748;8.426;99.512;2023-03-01T11:54:42;64.65;;;43.15;;
36797;SDS011;22748;8.426;99.512;2023-03-01T11:57:28;80.47;;;49.53;;
36797;SDS011;22748;8.426;99.512;2023-03-01T12:00:15;96.57;;;61.22;;
36797;SDS011;22748;8.426;99.512;2023-03-01T12:02:59;96.28;;;63.58;;
36797;SDS011;22748;8.426;99.512;2023-03-01T12:06:01;82.13;;;56.67;;
36797;SDS011;22748;8.426;99.512;2023-03-01T12:09:02;66.15;;;53.65;;
36797;SDS011;22748;8.426;99.512;2023-03-01T12:11:56;78.40;;;56.55;;
36797;SDS011;22748;8.426;99.512;2023-03-01T12:17:48;79.95;;;57.97;;
36797;SDS011;22748;8.426;99.512;2023-03-01T12:20:34;85.68;;;60.47;;
36797;SDS011;22748;8.426;99.512;2023-03-01T12:26:14;115.03;;;72.63;;
36797;SDS011;22748;8.426;99.512;2023-03-01T12:28:57;87.60;;;61.95;;
36797;SDS011;22748;8.426;99.512;2023-03-01T12:32:06;99.70;;;65.53;;
36797;SDS011;22748;8.426;99.512;2023-03-01T12:37:59;65.97;;;50.20;;
36797;SDS011;22748;8.426;99.512;2023-03-01T12:40:56;66.18;;;54.75;;
36797;SDS011;22748;8.426;99.512;2023-03-01T12:43:41;68.00;;;55.83;;
36797;SDS011;22748;8.426;99.512;2023-03-01T12:46:23;65.63;;;52.30;;
36797;SDS011;22748;8.426;99.512;2023-03-01T12:49:06;62.38;;;51.25;;
36797;SDS011;22748;8.426;99.512;2023-03-01T12:51:42;63.25;;;53.80;;
36797;SDS011;22748;8.426;99.512;2023-03-01T12:54:22;69.45;;;56.17;;
36797;SDS011;22748;8.426;99.512;2023-03-01T12:56:57;68.47;;;54.63;;
36797;SDS011;22748;8.426;99.512;2023-03-01T12:59:36;75.63;;;58.05;;
36797;SDS011;22748;8.426;99.512;2023-03-01T13:02:13;73.05;;;55.38;;
36797;SDS011;22748;8.426;99.512;2023-03-01T13:04:56;66.72;;;54.53;;
36797;SDS011;22748;8.426;99.512;2023-03-01T13:07:43;68.15;;;53.88;;
36797;SDS011;22748;8.426;99.512;2023-03-01T13:10:29;67.72;;;54.70;;
36797;SDS011;22748;8.426;99.512;2023-03-01T13:13:11;69.10;;;55.60;;
36797;SDS011;22748;8.426;99.512;2023-03-01T13:15:48;77.43;;;60.83;;
36797;SDS011;22748;8.426;99.512;2023-03-01T13:18:35;71.95;;;57.58;;
36797;SDS011;22748;8.426;99.512;2023-03-01T13:21:09;74.30;;;56.53;;
36797;SDS011;22748;8.426;99.512;2023-03-01T13:23:39;73.20;;;53.72;;
36797;SDS011;22748;8.426;99.512;2023-03-01T13:26:18;65.78;;;50.15;;
36797;SDS011;22748;8.426;99.512;2023-03-01T13:28:49;66.68;;;48.53;;
36797;SDS011;22748;8.426;99.512;2023-03-01T13:34:50;54.00;;;40.80;;
36797;SDS011;22748;8.426;99.512;2023-03-01T13:37:23;59.53;;;43.58;;
36797;SDS011;22748;8.426;99.512;2023-03-01T13:40:16;56.47;;;42.47;;
36797;SDS011;22748;8.426;99.512;2023-03-01T13:43:37;53.10;;;39.00;;
36797;SDS011;22748;8.426;99.512;2023-03-01T13:46:16;53.00;;;38.63;;
36797;SDS011;22748;8.426;99.512;2023-03-01T13:48:53;50.47;;;38.63;;
36797;SDS011;22748;8.426;99.512;2023-03-01T13:51:26;51.35;;;39.88;;
36797;SDS011;22748;8.426;99.512;2023-03-01T13:53:57;49.05;;;39.95;;
36797;SDS011;22748;8.426;99.512;2023-03-01T13:56:36;48.83;;;40.72;;
36797;SDS011;22748;8.426;99.512;2023-03-01T13:59:12;55.30;;;42.63;;
36797;SDS011;22748;8.426;99.512;2023-03-01T14:01:52;52.63;;;43.72;;
36797;SDS011;22748;8.426;99.512;2023-03-01T14:04:23;72.60;;;55.15;;
36797;SDS011;22748;8.426;99.512;2023-03-01T14:07:17;58.22;;;48.92;;
36797;SDS011;22748;8.426;99.512;2023-03-01T14:09:51;60.22;;;46.53;;
36797;SDS011;22748;8.426;99.512;2023-03-01T14:12:30;58.92;;;46.38;;
36797;SDS011;22748;8.426;99.512;2023-03-01T14:15:18;64.43;;;48.30;;
36797;SDS011;22748;8.426;99.512;2023-03-01T14:17:59;56.95;;;46.30;;
36797;SDS011;22748;8.426;99.512;2023-03-01T14:20:38;60.67;;;48.00;;
36797;SDS011;22748;8.426;99.512;2023-03-01T14:23:12;59.20;;;47.78;;
36797;SDS011;22748;8.426;99.512;2023-03-01T14:25:50;53.17;;;43.83;;
36797;SDS011;22748;8.426;99.512;2023-03-01T14:28:28;52.88;;;44.88;;
36797;SDS011;22748;8.426;99.512;2023-03-01T14:34:16;51.97;;;45.17;;
36797;SDS011;22748;8.426;99.512;2023-03-01T14:36:49;51.42;;;43.30;;
36797;SDS011;22748;8.426;99.512;2023-03-01T14:39:25;53.30;;;45.45;;
36797;SDS011;22748;8.426;99.512;2023-03-01T14:44:28;55.28;;;44.63;;
36797;SDS011;22748;8.426;99.512;2023-03-01T14:47:02;51.65;;;42.50;;
36797;SDS011;22748;8.426;99.512;2023-03-01T14:49:34;52.78;;;44.28;;
36797;SDS011;22748;8.426;99.512;2023-03-01T14:52:06;53.40;;;44.65;;
36797;SDS011;22748;8.426;99.512;2023-03-01T14:54:46;58.53;;;44.72;;
36797;SDS011;22748;8.426;99.512;2023-03-01T14:57:21;60.67;;;47.70;;
36797;SDS011;22748;8.426;99.512;2023-03-01T14:59:53;62.08;;;45.90;;
36797;SDS011;22748;8.426;99.512;2023-03-01T15:02:29;51.47;;;42.83;;
36797;SDS011;22748;8.426;99.512;2023-03-01T15:05:03;53.15;;;41.92;;
36797;SDS011;22748;8.426;99.512;2023-03-01T15:07:35;50.60;;;40.80;;
36797;SDS011;22748;8.426;99.512;2023-03-01T15:10:17;45.80;;;40.40;;
36797;SDS011;22748;8.426;99.512;2023-03-01T15:12:50;45.47;;;39.13;;
36797;SDS011;22748;8.426;99.512;2023-03-01T15:15:22;50.43;;;40.73;;
36797;SDS011;22748;8.426;99.512;2023-03-01T15:18:13;50.28;;;41.83;;
36797;SDS011;22748;8.426;99.512;2023-03-01T15:20:49;50.80;;;42.10;;
36797;SDS011;22748;8.426;99.512;2023-03-01T15:23:25;57.20;;;43.95;;
36797;SDS011;22748;8.426;99.512;2023-03-01T15:25:58;56.65;;;45.10;;
36797;SDS011;22748;8.426;99.512;2023-03-01T15:28:30;53.50;;;44.10;;
36797;SDS011;22748;8.426;99.512;2023-03-01T15:31:19;52.90;;;42.63;;
36797;SDS011;22748;8.426;99.512;2023-03-01T15:33:58;51.35;;;43.10;;
36797;SDS011;22748;8.426;99.512;2023-03-01T15:36:42;49.97;;;42.47;;
36797;SDS011;22748;8.426;99.512;2023-03-01T15:39:33;52.80;;;42.80;;
36797;SDS011;22748;8.426;99.512;2023-03-01T15:42:10;53.35;;;43.05;;
36797;SDS011;22748;8.426;99.512;2023-03-01T15:44:45;50.72;;;41.72;;
36797;SDS011;22748;8.426;99.512;2023-03-01T15:47:32;52.80;;;42.08;;
36797;SDS011;22748;8.426;99.512;2023-03-01T15:50:15;55.08;;;42.50;;
36797;SDS011;22748;8.426;99.512;2023-03-01T15:52:47;56.30;;;43.05;;
36797;SDS011;22748;8.426;99.512;2023-03-01T15:55:20;55.55;;;42.33;;
36797;SDS011;22748;8.426;99.512;2023-03-01T15:57:57;48.92;;;40.83;;
36797;SDS011;22748;8.426;99.512;2023-03-01T16:00:29;47.53;;;39.17;;
36797;SDS011;22748;8.426;99.512;2023-03-01T16:03:00;49.13;;;40.72;;